Time;durP1;ratioP1;P1;durP2;ratioP2;P2;SDS_P1;SDS_P2;PMS_P1;PMS_P2;Temp;Humidity;BMP_temperature;BMP_pressure;BME280_temperature;BME280_humidity;BME280_pressure;Samples;Min_cycle;Max_cycle;Signal;HPM_P1;HPM_P2
2024/01/28 00:00:14;;;;;;;14.43;6.43;;;;;;;;;;5071423;28;20464;-48
2024/01/28 00:02:41;;;;;;;9.97;5.50;;;;;;;;;;5071754;28;20434;-47
2024/01/28 00:05:07;;;;;;;13.30;6.33;;;;;;;;;;5071508;28;20544;-47
2024/01/28 00:07:34;;;;;;;16.83;5.77;;;;;;;;;;5071661;28;20963;-47
2024/01/28 00:10:00;;;;;;;12.90;5.87;;;;;;;;;;5071439;28;20430;-47
2024/01/28 00:12:26;;;;;;;12.47;5.93;;;;;;;;;;5071121;28;20935;-47
2024/01/28 00:14:52;;;;;;;11.43;5.90;;;;;;;;;;5071561;28;20473;-47
2024/01/28 00:17:18;;;;;;;10.10;5.90;;;;;;;;;;5071313;28;20223;-47
2024/01/28 00:19:45;;;;;;;11.13;6.13;;;;;;;;;;5071776;28;20204;-47
2024/01/28 00:22:11;;;;;;;9.53;5.77;;;;;;;;;;5071342;28;20208;-47
2024/01/28 00:24:37;;;;;;;8.93;5.30;;;;;;;;;;5071248;28;20433;-47
2024/01/28 00:27:03;;;;;;;12.90;5.77;;;;;;;;;;5071349;28;20249;-47
2024/01/28 00:29:29;;;;;;;11.90;6.33;;;;;;;;;;5073873;28;20207;-47
2024/01/28 00:31:56;;;;;;;9.90;5.40;;;;;;;;;;5075154;28;20449;-47
2024/01/28 00:34:22;;;;;;;13.13;5.83;;;;;;;;;;5075071;28;20231;-47
2024/01/28 00:36:49;;;;;;;11.43;5.70;;;;;;;;;;5074877;28;20418;-47
2024/01/28 00:39:15;;;;;;;8.70;5.20;;;;;;;;;;5075062;28;20458;-47
2024/01/28 00:41:41;;;;;;;9.90;5.70;;;;;;;;;;5075095;28;20524;-47
2024/01/28 00:44:07;;;;;;;8.90;5.50;;;;;;;;;;5075114;28;20199;-47
2024/01/28 00:46:33;;;;;;;8.67;5.63;;;;;;;;;;5074847;28;20572;-47
2024/01/28 00:48:59;;;;;;;12.00;5.50;;;;;;;;;;5074550;28;20440;-47
2024/01/28 00:51:25;;;;;;;9.77;5.00;;;;;;;;;;5074791;28;20192;-47
2024/01/28 00:53:52;;;;;;;13.77;5.77;;;;;;;;;;5071154;28;20765;-46
2024/01/28 00:56:18;;;;;;;10.83;6.07;;;;;;;;;;5073114;28;20207;-46
2024/01/28 00:58:44;;;;;;;15.47;5.20;;;;;;;;;;5074817;28;20430;-46
2024/01/28 01:01:10;;;;;;;14.27;5.63;;;;;;;;;;5074733;28;20242;-46
2024/01/28 01:03:37;;;;;;;11.07;5.53;;;;;;;;;;5074820;28;20834;-46
2024/01/28 01:06:03;;;;;;;10.40;5.30;;;;;;;;;;5074507;28;20537;-46
2024/01/28 01:08:32;;;;;;;10.37;5.30;;;;;;;;;;5074619;28;20963;-46
2024/01/28 01:11:03;;;;;;;13.57;5.30;;;;;;;;;;5074574;28;20588;-46
2024/01/28 01:13:30;;;;;;;13.43;5.30;;;;;;;;;;5074423;28;20483;-46
2024/01/28 01:15:56;;;;;;;13.10;6.37;;;;;;;;;;5074361;28;20437;-46
2024/01/28 01:18:23;;;;;;;7.50;5.43;;;;;;;;;;5074357;28;20545;-46
2024/01/28 01:20:49;;;;;;;8.07;5.43;;;;;;;;;;5074408;28;20207;-46
2024/01/28 01:23:15;;;;;;;12.87;5.67;;;;;;;;;;5074338;28;20833;-47
2024/01/28 01:25:41;;;;;;;10.23;5.13;;;;;;;;;;5074293;28;20222;-46
2024/01/28 01:28:09;;;;;;;9.20;5.20;;;;;;;;;;5074166;28;20666;-46
2024/01/28 01:30:35;;;;;;;10.97;5.60;;;;;;;;;;5074222;28;20621;-46
2024/01/28 01:33:01;;;;;;;10.97;5.13;;;;;;;;;;5074074;28;20521;-47
2024/01/28 01:35:27;;;;;;;10.37;4.90;;;;;;;;;;5073995;28;20469;-46
2024/01/28 01:37:54;;;;;;;10.47;4.80;;;;;;;;;;5074188;28;20434;-46
2024/01/28 01:40:20;;;;;;;10.50;5.30;;;;;;;;;;5072977;28;20434;-47
2024/01/28 01:42:46;;;;;;;12.10;5.30;;;;;;;;;;5074006;28;20440;-46
2024/01/28 01:45:13;;;;;;;8.33;5.20;;;;;;;;;;5073901;28;20438;-46
2024/01/28 01:47:40;;;;;;;9.63;5.43;;;;;;;;;;5073849;28;20940;-46
2024/01/28 01:50:09;;;;;;;10.87;4.90;;;;;;;;;;5073608;28;20954;-46
2024/01/28 01:52:35;;;;;;;8.20;4.90;;;;;;;;;;5073861;28;20438;-46
2024/01/28 01:55:02;;;;;;;10.17;4.90;;;;;;;;;;5073760;28;20574;-47
2024/01/28 01:57:28;;;;;;;13.17;5.67;;;;;;;;;;5073652;28;20472;-46
2024/01/28 01:59:54;;;;;;;9.23;5.57;;;;;;;;;;5073741;28;20438;-47
2024/01/28 02:02:21;;;;;;;10.30;5.27;;;;;;;;;;5073532;28;20434;-46
2024/01/28 02:04:47;;;;;;;12.70;5.53;;;;;;;;;;5073463;28;20446;-46
2024/01/28 02:07:13;;;;;;;10.50;5.53;;;;;;;;;;5073403;28;20448;-46
2024/01/28 02:09:39;;;;;;;9.20;4.23;;;;;;;;;;5073396;28;20723;-46
2024/01/28 02:12:05;;;;;;;10.20;4.90;;;;;;;;;;5073311;28;20433;-47
2024/01/28 02:14:32;;;;;;;10.90;5.17;;;;;;;;;;5071418;28;20338;-47
2024/01/28 02:16:59;;;;;;;9.83;5.20;;;;;;;;;;5071756;28;20450;-47
2024/01/28 02:19:27;;;;;;;11.20;5.33;;;;;;;;;;5068013;28;21009;-47
2024/01/28 02:21:53;;;;;;;9.33;5.27;;;;;;;;;;5071593;28;20434;-46
2024/01/28 02:24:21;;;;;;;8.33;4.73;;;;;;;;;;5073110;28;20430;-46
2024/01/28 02:26:47;;;;;;;8.33;5.03;;;;;;;;;;5073045;28;20908;-46
2024/01/28 02:29:13;;;;;;;9.00;5.07;;;;;;;;;;5071349;28;20450;-47
2024/01/28 02:31:38;;;;;;;11.33;4.77;;;;;;;;;;5069745;28;20967;-46
2024/01/28 02:34:05;;;;;;;6.70;4.73;;;;;;;;;;5069409;28;20235;-46
2024/01/28 02:36:31;;;;;;;10.73;5.07;;;;;;;;;;5073080;28;20253;-46
2024/01/28 02:38:58;;;;;;;10.67;5.63;;;;;;;;;;5066422;28;20446;-46
2024/01/28 02:41:26;;;;;;;13.70;5.13;;;;;;;;;;5071108;28;20798;-46
2024/01/28 02:43:54;;;;;;;5.97;4.10;;;;;;;;;;5069369;28;20446;-46
2024/01/28 02:46:20;;;;;;;10.37;5.03;;;;;;;;;;5069209;28;20492;-46
2024/01/28 02:48:46;;;;;;;10.77;4.57;;;;;;;;;;5067780;28;20438;-47
2024/01/28 02:51:12;;;;;;;12.13;4.63;;;;;;;;;;5063887;28;20430;-46
2024/01/28 02:53:38;;;;;;;7.30;4.50;;;;;;;;;;5070896;28;20954;-46
2024/01/28 02:56:06;;;;;;;12.57;4.93;;;;;;;;;;5069098;28;20210;-46
2024/01/28 02:58:33;;;;;;;9.37;5.00;;;;;;;;;;5064144;28;20199;-46
2024/01/28 03:00:59;;;;;;;8.90;4.63;;;;;;;;;;5065742;28;20441;-47
2024/01/28 03:03:25;;;;;;;9.20;4.90;;;;;;;;;;5070691;28;20446;-47
2024/01/28 03:05:51;;;;;;;9.43;5.07;;;;;;;;;;5065828;28;20221;-47
2024/01/28 03:08:17;;;;;;;5.83;4.17;;;;;;;;;;5068939;28;20201;-47
2024/01/28 03:10:43;;;;;;;11.57;4.80;;;;;;;;;;5067278;28;20199;-46
2024/01/28 03:13:09;;;;;;;8.17;4.20;;;;;;;;;;5067064;28;20262;-47
2024/01/28 03:15:36;;;;;;;6.07;4.20;;;;;;;;;;5064030;28;20293;-47
2024/01/28 03:18:02;;;;;;;8.63;4.90;;;;;;;;;;5063680;28;20223;-47
2024/01/28 03:20:28;;;;;;;8.63;4.93;;;;;;;;;;5070681;28;20483;-46
2024/01/28 03:22:54;;;;;;;8.53;4.43;;;;;;;;;;5068920;28;20499;-47
2024/01/28 03:25:20;;;;;;;9.67;4.63;;;;;;;;;;5068689;28;20733;-47
2024/01/28 03:27:46;;;;;;;9.03;4.53;;;;;;;;;;5068978;28;20612;-47
2024/01/28 03:30:13;;;;;;;12.83;5.17;;;;;;;;;;5067030;28;20480;-46
2024/01/28 03:32:40;;;;;;;6.50;4.27;;;;;;;;;;5065239;28;20432;-47
2024/01/28 03:35:06;;;;;;;8.27;4.07;;;;;;;;;;5063213;28;21002;-46
2024/01/28 03:37:32;;;;;;;10.87;4.87;;;;;;;;;;5067019;28;20438;-46
2024/01/28 03:39:58;;;;;;;12.30;5.00;;;;;;;;;;5063585;28;20519;-46
2024/01/28 03:42:25;;;;;;;11.27;4.77;;;;;;;;;;5063324;28;20199;-46
2024/01/28 03:44:51;;;;;;;7.03;4.43;;;;;;;;;;5065114;28;20426;-46
2024/01/28 03:47:17;;;;;;;6.83;4.23;;;;;;;;;;5065317;28;20487;-46
2024/01/28 03:49:44;;;;;;;6.63;4.50;;;;;;;;;;5066905;28;20265;-46
2024/01/28 03:52:10;;;;;;;10.93;5.23;;;;;;;;;;5061666;28;20503;-46
2024/01/28 03:54:36;;;;;;;7.67;4.40;;;;;;;;;;5065014;28;20556;-46
2024/01/28 03:57:03;;;;;;;9.47;4.53;;;;;;;;;;5063301;28;20628;-46
2024/01/28 03:59:29;;;;;;;6.70;3.70;;;;;;;;;;5063495;28;20274;-46
2024/01/28 04:01:55;;;;;;;10.43;4.80;;;;;;;;;;5063185;28;20445;-46
2024/01/28 04:04:21;;;;;;;11.60;4.47;;;;;;;;;;5067109;28;20442;-46
2024/01/28 04:06:48;;;;;;;9.00;4.57;;;;;;;;;;5067356;28;20202;-46
2024/01/28 04:09:14;;;;;;;9.20;4.20;;;;;;;;;;5065523;28;20208;-47
2024/01/28 04:11:40;;;;;;;8.17;4.30;;;;;;;;;;5065412;28;20442;-47
2024/01/28 04:14:06;;;;;;;8.07;4.50;;;;;;;;;;5063435;28;20606;-47
2024/01/28 04:16:32;;;;;;;11.80;4.67;;;;;;;;;;5063629;28;21455;-47
2024/01/28 04:18:58;;;;;;;9.63;4.93;;;;;;;;;;5065435;28;20429;-46
2024/01/28 04:21:26;;;;;;;10.13;4.80;;;;;;;;;;5066783;28;20442;-46
2024/01/28 04:23:53;;;;;;;8.87;4.73;;;;;;;;;;5066975;28;20434;-46
2024/01/28 04:26:19;;;;;;;6.63;4.60;;;;;;;;;;5066797;28;20924;-46
2024/01/28 04:28:46;;;;;;;8.93;4.10;;;;;;;;;;5066901;28;20450;-46
2024/01/28 04:31:16;;;;;;;9.80;4.40;;;;;;;;;;5065030;28;20426;-47
2024/01/28 04:33:42;;;;;;;6.20;3.80;;;;;;;;;;5065117;28;20472;-46
2024/01/28 04:36:08;;;;;;;7.93;4.00;;;;;;;;;;5066652;28;20943;-47
2024/01/28 04:38:34;;;;;;;9.63;3.97;;;;;;;;;;5065051;28;20796;-47
2024/01/28 04:41:01;;;;;;;8.87;4.43;;;;;;;;;;5063314;28;20479;-46
2024/01/28 04:43:27;;;;;;;7.37;4.00;;;;;;;;;;5064892;28;20437;-46
2024/01/28 04:45:53;;;;;;;10.63;4.37;;;;;;;;;;5066633;28;20436;-47
2024/01/28 04:48:20;;;;;;;8.07;3.93;;;;;;;;;;5064720;28;20199;-47
2024/01/28 04:50:46;;;;;;;7.87;4.47;;;;;;;;;;5068160;28;20570;-46
2024/01/28 04:53:12;;;;;;;12.63;4.63;;;;;;;;;;5066394;28;20517;-46
2024/01/28 04:55:38;;;;;;;11.03;4.80;;;;;;;;;;5062949;28;20231;-46
2024/01/28 04:58:05;;;;;;;12.53;4.40;;;;;;;;;;5062842;28;20509;-47
2024/01/28 05:00:31;;;;;;;11.17;4.50;;;;;;;;;;5064463;28;20446;-47
2024/01/28 05:02:57;;;;;;;9.47;4.53;;;;;;;;;;5064414;28;20434;-47
2024/01/28 05:05:23;;;;;;;11.50;5.33;;;;;;;;;;5060844;28;20518;-47
2024/01/28 05:07:50;;;;;;;9.70;4.20;;;;;;;;;;5061140;28;20513;-47
2024/01/28 05:10:16;;;;;;;9.43;4.23;;;;;;;;;;5062738;28;20295;-47
2024/01/28 05:12:43;;;;;;;5.30;4.00;;;;;;;;;;5064236;28;20831;-46
2024/01/28 05:15:14;;;;;;;9.90;4.70;;;;;;;;;;5064726;28;20814;-47
2024/01/28 05:17:40;;;;;;;9.30;5.20;;;;;;;;;;5064398;28;20485;-46
2024/01/28 05:20:09;;;;;;;11.90;5.30;;;;;;;;;;5062330;28;20465;-46
2024/01/28 05:22:35;;;;;;;13.10;4.73;;;;;;;;;;5062278;28;20434;-46
2024/01/28 05:25:02;;;;;;;9.77;5.60;;;;;;;;;;5067476;28;20476;-46
2024/01/28 05:27:28;;;;;;;9.50;4.67;;;;;;;;;;5064063;28;20195;-46
2024/01/28 05:29:55;;;;;;;10.27;4.63;;;;;;;;;;5062193;28;20446;-46
2024/01/28 05:32:23;;;;;;;7.83;4.27;;;;;;;;;;5062117;28;20616;-46
2024/01/28 05:34:49;;;;;;;10.37;3.93;;;;;;;;;;5062124;28;20877;-47
2024/01/28 05:37:16;;;;;;;8.20;4.03;;;;;;;;;;5065606;28;20515;-47
2024/01/28 05:39:42;;;;;;;9.00;4.27;;;;;;;;;;5065919;28;20560;-46
2024/01/28 05:42:08;;;;;;;9.33;4.37;;;;;;;;;;5063876;28;20479;-47
2024/01/28 05:44:34;;;;;;;10.20;4.17;;;;;;;;;;5061534;28;20817;-47
2024/01/28 05:47:00;;;;;;;8.97;3.93;;;;;;;;;;5065660;28;20199;-47
2024/01/28 05:49:27;;;;;;;8.47;4.30;;;;;;;;;;5063479;28;20441;-47
2024/01/28 05:51:53;;;;;;;6.10;3.53;;;;;;;;;;5061926;28;20208;-46
2024/01/28 05:54:20;;;;;;;11.17;4.03;;;;;;;;;;5066803;28;20480;-46
2024/01/28 05:56:45;;;;;;;12.23;4.33;;;;;;;;;;5061858;28;20254;-46
2024/01/28 05:59:11;;;;;;;8.07;4.33;;;;;;;;;;5061777;28;20429;-47
2024/01/28 06:01:37;;;;;;;8.90;3.87;;;;;;;;;;5063494;28;20748;-47
2024/01/28 06:04:04;;;;;;;12.37;3.63;;;;;;;;;;5061625;28;20190;-46
2024/01/28 06:06:32;;;;;;;8.33;3.87;;;;;;;;;;5065067;28;20251;-46
2024/01/28 06:08:58;;;;;;;11.90;4.70;;;;;;;;;;5066754;28;20442;-46
2024/01/28 06:11:25;;;;;;;8.37;3.90;;;;;;;;;;5066550;28;20444;-47
2024/01/28 06:13:51;;;;;;;14.10;4.67;;;;;;;;;;5061261;28;20470;-47
2024/01/28 06:16:17;;;;;;;10.23;4.10;;;;;;;;;;5063138;28;20434;-47
2024/01/28 06:18:43;;;;;;;14.77;5.00;;;;;;;;;;5061275;28;20540;-47
2024/01/28 06:21:10;;;;;;;14.07;4.10;;;;;;;;;;5061255;28;20833;-46
2024/01/28 06:23:38;;;;;;;12.60;4.40;;;;;;;;;;5062926;28;20267;-46
2024/01/28 06:26:04;;;;;;;11.17;4.27;;;;;;;;;;5061110;28;20426;-46
2024/01/28 06:28:30;;;;;;;9.83;3.80;;;;;;;;;;5062882;28;20446;-46
2024/01/28 06:30:55;;;;;;;9.70;4.23;;;;;;;;;;5061227;28;21316;-46
2024/01/28 06:33:21;;;;;;;9.57;4.17;;;;;;;;;;5061035;28;20924;-46
2024/01/28 06:35:47;;;;;;;7.20;4.47;;;;;;;;;;5059162;28;20258;-46
2024/01/28 06:38:13;;;;;;;9.40;4.53;;;;;;;;;;5061363;28;20208;-46
2024/01/28 06:40:41;;;;;;;13.33;5.30;;;;;;;;;;5060928;28;20680;-46
2024/01/28 06:43:07;;;;;;;7.23;3.87;;;;;;;;;;5060754;28;20222;-46
2024/01/28 06:45:33;;;;;;;5.80;3.80;;;;;;;;;;5060810;28;20465;-46
2024/01/28 06:47:59;;;;;;;7.67;4.13;;;;;;;;;;5062651;28;20857;-47
2024/01/28 06:50:25;;;;;;;10.77;4.03;;;;;;;;;;5062329;28;20203;-47
2024/01/28 06:52:51;;;;;;;10.57;4.43;;;;;;;;;;5062480;28;20202;-46
2024/01/28 06:55:17;;;;;;;10.20;4.00;;;;;;;;;;5064065;28;20233;-46
2024/01/28 06:57:44;;;;;;;11.60;4.00;;;;;;;;;;5062518;28;20452;-46
2024/01/28 07:00:13;;;;;;;9.20;4.00;;;;;;;;;;5063976;28;20533;-46
2024/01/28 07:02:39;;;;;;;9.10;3.80;;;;;;;;;;5062125;28;20430;-47
2024/01/28 07:05:07;;;;;;;8.30;4.43;;;;;;;;;;5061443;28;20513;-46
2024/01/28 07:07:33;;;;;;;6.97;3.80;;;;;;;;;;5060376;28;20990;-46
2024/01/28 07:09:59;;;;;;;7.43;3.80;;;;;;;;;;5062341;28;20453;-46
2024/01/28 07:12:25;;;;;;;7.30;3.70;;;;;;;;;;5061419;28;20458;-48
2024/01/28 07:14:53;;;;;;;6.77;3.70;;;;;;;;;;5060374;28;21034;-47
2024/01/28 07:17:19;;;;;;;8.33;3.90;;;;;;;;;;5061903;28;20460;-46
2024/01/28 07:19:46;;;;;;;9.27;4.13;;;;;;;;;;5065366;28;20817;-47
2024/01/28 07:22:12;;;;;;;8.17;3.93;;;;;;;;;;5063927;28;20434;-46
2024/01/28 07:24:38;;;;;;;10.50;4.17;;;;;;;;;;5063542;28;20195;-46
2024/01/28 07:27:05;;;;;;;7.67;4.20;;;;;;;;;;5062068;28;20454;-46
2024/01/28 07:29:31;;;;;;;8.83;3.70;;;;;;;;;;5063540;28;20537;-46
2024/01/28 07:31:58;;;;;;;11.47;4.87;;;;;;;;;;5061966;28;20521;-46
2024/01/28 07:34:24;;;;;;;8.57;3.93;;;;;;;;;;5061631;28;20228;-46
2024/01/28 07:36:54;;;;;;;8.87;4.20;;;;;;;;;;5061960;28;20438;-46
2024/01/28 07:39:20;;;;;;;10.97;4.33;;;;;;;;;;5059337;28;20203;-47
2024/01/28 07:41:46;;;;;;;9.10;4.27;;;;;;;;;;5058404;28;20803;-47
2024/01/28 07:44:12;;;;;;;9.57;4.00;;;;;;;;;;5061843;28;20199;-46
2024/01/28 07:46:38;;;;;;;9.43;3.80;;;;;;;;;;5063403;28;20504;-46
2024/01/28 07:49:06;;;;;;;9.87;4.17;;;;;;;;;;5061699;28;20215;-46
2024/01/28 07:51:32;;;;;;;9.23;3.90;;;;;;;;;;5061685;28;20434;-46
2024/01/28 07:53:58;;;;;;;8.33;3.70;;;;;;;;;;5064976;28;20511;-46
2024/01/28 07:56:24;;;;;;;14.40;3.67;;;;;;;;;;5065664;28;20196;-47
2024/01/28 07:58:50;;;;;;;9.00;3.50;;;;;;;;;;5062010;28;20207;-46
2024/01/28 08:01:16;;;;;;;5.70;3.77;;;;;;;;;;5061625;28;20203;-46
2024/01/28 08:03:42;;;;;;;8.73;3.50;;;;;;;;;;5059657;28;20205;-46
2024/01/28 08:06:09;;;;;;;7.27;3.80;;;;;;;;;;5059874;28;20524;-47
2024/01/28 08:08:36;;;;;;;7.30;2.93;;;;;;;;;;5061578;28;20237;-47
2024/01/28 08:11:02;;;;;;;5.80;3.13;;;;;;;;;;5061619;28;20437;-46
2024/01/28 08:13:28;;;;;;;7.57;3.67;;;;;;;;;;5064611;28;20469;-46
2024/01/28 08:16:01;;;;;;;5.40;2.73;;;;;;;;;;5059560;28;20473;-44
2024/01/28 08:18:27;;;;;;;5.77;2.87;;;;;;;;;;5059505;28;20536;-46
2024/01/28 08:20:53;;;;;;;6.60;2.57;;;;;;;;;;5061478;28;20444;-46
2024/01/28 08:23:20;;;;;;;6.00;3.00;;;;;;;;;;5057946;28;20426;-46
2024/01/28 08:25:46;;;;;;;8.87;3.23;;;;;;;;;;5061563;28;20795;-46
2024/01/28 08:28:12;;;;;;;9.13;3.00;;;;;;;;;;5061515;28;20222;-47
2024/01/28 08:30:38;;;;;;;9.13;3.70;;;;;;;;;;5059598;28;20200;-47
2024/01/28 08:33:05;;;;;;;12.83;3.70;;;;;;;;;;5063118;28;20226;-47
2024/01/28 08:35:31;;;;;;;8.53;3.43;;;;;;;;;;5062633;28;20284;-46
2024/01/28 08:37:57;;;;;;;4.50;2.87;;;;;;;;;;5061229;28;20203;-47
2024/01/28 08:40:25;;;;;;;6.30;3.20;;;;;;;;;;5060887;28;20281;-46
2024/01/28 08:42:51;;;;;;;10.07;3.20;;;;;;;;;;5061073;28;20540;-46
2024/01/28 08:45:19;;;;;;;6.97;3.27;;;;;;;;;;5057698;28;20187;-46
2024/01/28 08:47:45;;;;;;;7.67;2.93;;;;;;;;;;5059381;28;20227;-46
2024/01/28 08:50:11;;;;;;;8.20;3.27;;;;;;;;;;5061087;28;20241;-46
2024/01/28 08:52:37;;;;;;;8.13;3.20;;;;;;;;;;5067980;28;21203;-46
2024/01/28 08:55:03;;;;;;;8.63;3.50;;;;;;;;;;5062822;28;20241;-46
2024/01/28 08:57:32;;;;;;;8.37;3.77;;;;;;;;;;5062825;28;20226;-46
2024/01/28 08:59:58;;;;;;;7.90;3.37;;;;;;;;;;5064655;28;20480;-46
2024/01/28 09:02:24;;;;;;;7.70;3.20;;;;;;;;;;5068154;28;20828;-46
2024/01/28 09:04:50;;;;;;;8.77;3.33;;;;;;;;;;5065941;28;20437;-46
2024/01/28 09:07:16;;;;;;;6.27;3.40;;;;;;;;;;5066214;28;20211;-46
2024/01/28 09:09:42;;;;;;;6.20;2.80;;;;;;;;;;5071003;28;20674;-46
2024/01/28 09:12:08;;;;;;;6.10;2.93;;;;;;;;;;5074500;28;20959;-46
2024/01/28 09:14:35;;;;;;;7.50;2.90;;;;;;;;;;5074119;28;20231;-46
2024/01/28 09:17:02;;;;;;;6.43;3.43;;;;;;;;;;5074459;28;20216;-46
2024/01/28 09:19:28;;;;;;;6.83;2.87;;;;;;;;;;5074345;28;20622;-46
2024/01/28 09:21:54;;;;;;;10.87;3.80;;;;;;;;;;5074393;28;20234;-46
2024/01/28 09:24:20;;;;;;;6.83;2.90;;;;;;;;;;5074269;28;20290;-46
2024/01/28 09:26:46;;;;;;;7.40;2.90;;;;;;;;;;5072518;28;20541;-46
2024/01/28 09:29:12;;;;;;;9.03;3.57;;;;;;;;;;5066032;28;20187;-46
2024/01/28 09:31:43;;;;;;;7.07;3.13;;;;;;;;;;5063814;28;20788;-46
2024/01/28 09:34:09;;;;;;;6.33;2.87;;;;;;;;;;5065466;28;20208;-46
2024/01/28 09:36:35;;;;;;;5.93;2.83;;;;;;;;;;5072128;28;20674;-46
2024/01/28 09:39:02;;;;;;;6.27;3.00;;;;;;;;;;5072667;28;20286;-46
2024/01/28 09:41:32;;;;;;;6.03;3.10;;;;;;;;;;5072161;28;20199;-46
2024/01/28 09:43:58;;;;;;;5.43;2.50;;;;;;;;;;5073973;28;20210;-46
2024/01/28 09:46:25;;;;;;;6.17;2.70;;;;;;;;;;5070251;28;20549;-46
2024/01/28 09:48:52;;;;;;;7.83;3.27;;;;;;;;;;5073538;28;20207;-46
2024/01/28 09:51:22;;;;;;;5.80;3.13;;;;;;;;;;5070499;28;20199;-47
2024/01/28 09:53:48;;;;;;;5.87;2.73;;;;;;;;;;5070242;28;20206;-46
2024/01/28 09:56:16;;;;;;;6.30;2.60;;;;;;;;;;5073658;28;20215;-46
2024/01/28 09:58:43;;;;;;;6.73;3.10;;;;;;;;;;5070101;28;20203;-46
2024/01/28 10:01:10;;;;;;;5.27;3.00;;;;;;;;;;5060958;28;20209;-46
2024/01/28 10:03:36;;;;;;;4.93;2.70;;;;;;;;;;5068290;28;20192;-46
2024/01/28 10:06:04;;;;;;;6.87;2.40;;;;;;;;;;5069907;28;20246;-46
2024/01/28 10:08:31;;;;;;;5.80;2.80;;;;;;;;;;5069946;28;20204;-46
2024/01/28 10:10:57;;;;;;;5.10;2.70;;;;;;;;;;5065098;28;20564;-46
2024/01/28 10:13:23;;;;;;;5.73;2.53;;;;;;;;;;5064498;28;20285;-46
2024/01/28 10:15:58;;;;;;;5.97;2.80;;;;;;;;;;5066282;28;20323;-46
2024/01/28 10:18:25;;;;;;;6.23;2.80;;;;;;;;;;5069519;28;20592;-46
2024/01/28 10:20:51;;;;;;;6.23;3.40;;;;;;;;;;5069652;28;20196;-46
2024/01/28 10:23:18;;;;;;;5.13;2.63;;;;;;;;;;5066389;28;20188;-46
2024/01/28 10:25:45;;;;;;;5.83;2.53;;;;;;;;;;5067995;28;20200;-46
2024/01/28 10:28:11;;;;;;;6.47;2.87;;;;;;;;;;5064593;28;20200;-46
2024/01/28 10:30:37;;;;;;;5.10;2.50;;;;;;;;;;5066038;28;20507;-46
2024/01/28 10:33:03;;;;;;;5.63;2.80;;;;;;;;;;5071134;28;20572;-46
2024/01/28 10:35:29;;;;;;;6.50;2.77;;;;;;;;;;5069401;28;20251;-46
2024/01/28 10:37:56;;;;;;;4.83;2.40;;;;;;;;;;5071141;28;20595;-46
2024/01/28 10:40:24;;;;;;;6.27;2.90;;;;;;;;;;5064256;28;20261;-46
2024/01/28 10:42:54;;;;;;;5.87;2.60;;;;;;;;;;5067615;28;20212;-46
2024/01/28 10:45:22;;;;;;;4.97;2.53;;;;;;;;;;5072573;28;20191;-47
2024/01/28 10:47:50;;;;;;;3.77;2.20;;;;;;;;;;5068971;28;20203;-47
2024/01/28 10:50:17;;;;;;;5.00;2.50;;;;;;;;;;5069300;28;20223;-46
2024/01/28 10:52:44;;;;;;;4.60;2.20;;;;;;;;;;5069136;28;20210;-46
2024/01/28 10:55:10;;;;;;;7.97;2.87;;;;;;;;;;5064038;28;20219;-46
2024/01/28 10:57:39;;;;;;;7.00;3.10;;;;;;;;;;5063943;28;20650;-46
2024/01/28 11:00:06;;;;;;;3.87;2.60;;;;;;;;;;5063758;28;20670;-46
2024/01/28 11:02:32;;;;;;;6.00;2.27;;;;;;;;;;5064699;28;20775;-46
2024/01/28 11:04:58;;;;;;;5.97;2.60;;;;;;;;;;5067242;28;20214;-47
2024/01/28 11:07:24;;;;;;;6.47;2.37;;;;;;;;;;5068800;28;20192;-47
2024/01/28 11:09:51;;;;;;;3.97;2.30;;;;;;;;;;5068443;28;20721;-46
2024/01/28 11:12:17;;;;;;;7.07;2.80;;;;;;;;;;5065241;28;20539;-46
2024/01/28 11:14:46;;;;;;;6.23;2.67;;;;;;;;;;5068395;28;20261;-47
2024/01/28 11:17:12;;;;;;;4.33;2.63;;;;;;;;;;5065132;28;20216;-47
2024/01/28 11:19:38;;;;;;;3.83;2.27;;;;;;;;;;5066548;28;20321;-47
2024/01/28 11:22:04;;;;;;;5.37;2.63;;;;;;;;;;5068636;28;20294;-47
2024/01/28 11:24:30;;;;;;;4.43;2.43;;;;;;;;;;5067162;28;20203;-46
2024/01/28 11:26:57;;;;;;;4.83;2.30;;;;;;;;;;5070218;28;20195;-46
2024/01/28 11:29:23;;;;;;;6.50;2.57;;;;;;;;;;5065275;28;20489;-46
2024/01/28 11:31:51;;;;;;;4.17;2.30;;;;;;;;;;5070184;28;20192;-46
2024/01/28 11:34:19;;;;;;;4.83;2.10;;;;;;;;;;5066590;28;20658;-46
2024/01/28 11:36:46;;;;;;;7.10;2.70;;;;;;;;;;5066779;28;20763;-46
2024/01/28 11:39:13;;;;;;;5.03;2.37;;;;;;;;;;5066687;28;20747;-46
2024/01/28 11:41:40;;;;;;;7.47;2.17;;;;;;;;;;5066899;28;20206;-47
2024/01/28 11:44:07;;;;;;;6.80;2.73;;;;;;;;;;5068648;28;20215;-46
2024/01/28 11:46:34;;;;;;;5.20;2.50;;;;;;;;;;5068612;28;20196;-46
2024/01/28 11:49:01;;;;;;;6.90;2.33;;;;;;;;;;5063531;28;20234;-46
2024/01/28 11:51:28;;;;;;;7.40;2.47;;;;;;;;;;5061704;28;20207;-46
2024/01/28 11:53:54;;;;;;;6.60;2.17;;;;;;;;;;5065066;28;20200;-47
2024/01/28 11:56:20;;;;;;;6.67;2.43;;;;;;;;;;5066791;28;20219;-46
2024/01/28 11:58:46;;;;;;;5.43;2.50;;;;;;;;;;5066792;28;20200;-46
2024/01/28 12:01:13;;;;;;;5.20;2.13;;;;;;;;;;5067005;28;20210;-47
2024/01/28 12:03:39;;;;;;;4.13;2.00;;;;;;;;;;5066655;28;20252;-47
2024/01/28 12:06:07;;;;;;;5.37;2.37;;;;;;;;;;5066787;28;20210;-47
2024/01/28 12:08:33;;;;;;;3.80;2.10;;;;;;;;;;5066611;28;20206;-46
2024/01/28 12:10:59;;;;;;;5.90;2.17;;;;;;;;;;5068454;28;20218;-47
2024/01/28 12:13:25;;;;;;;3.27;1.93;;;;;;;;;;5061334;28;20231;-46
2024/01/28 12:15:51;;;;;;;6.37;2.47;;;;;;;;;;5069992;28;20642;-46
2024/01/28 12:18:17;;;;;;;4.40;2.30;;;;;;;;;;5068217;28;20220;-47
2024/01/28 12:20:50;;;;;;;4.40;2.50;;;;;;;;;;5064841;28;20195;-47
2024/01/28 12:23:19;;;;;;;5.67;2.20;;;;;;;;;;5066735;28;20270;-47
2024/01/28 12:25:45;;;;;;;5.63;2.33;;;;;;;;;;5065928;28;20195;-46
2024/01/28 12:28:11;;;;;;;4.50;2.40;;;;;;;;;;5074063;28;20196;-47
2024/01/28 12:30:38;;;;;;;4.23;2.60;;;;;;;;;;5066754;28;20472;-47
2024/01/28 12:33:04;;;;;;;4.83;2.50;;;;;;;;;;5068664;28;20200;-47
2024/01/28 12:35:30;;;;;;;3.67;2.07;;;;;;;;;;5068617;28;20227;-47
2024/01/28 12:37:56;;;;;;;4.80;2.37;;;;;;;;;;5066743;28;20280;-47
2024/01/28 12:40:23;;;;;;;5.37;2.30;;;;;;;;;;5068373;28;20313;-47
2024/01/28 12:42:49;;;;;;;5.43;2.00;;;;;;;;;;5069767;28;20222;-47
2024/01/28 12:45:16;;;;;;;4.90;2.10;;;;;;;;;;5071942;28;20245;-47
2024/01/28 12:47:42;;;;;;;5.60;2.60;;;;;;;;;;5066583;28;20211;-46
2024/01/28 12:50:08;;;;;;;4.53;2.27;;;;;;;;;;5068406;28;20192;-47
2024/01/28 12:52:34;;;;;;;4.80;1.90;;;;;;;;;;5071735;28;20200;-47
2024/01/28 12:55:01;;;;;;;6.03;2.23;;;;;;;;;;5069792;28;20234;-46
2024/01/28 12:57:28;;;;;;;5.83;2.00;;;;;;;;;;5068142;28;20199;-46
2024/01/28 12:59:54;;;;;;;3.93;2.10;;;;;;;;;;5074889;28;20204;-46
2024/01/28 13:02:20;;;;;;;4.70;2.30;;;;;;;;;;5075002;28;20249;-46
2024/01/28 13:04:47;;;;;;;3.33;2.20;;;;;;;;;;5074894;28;20549;-46
2024/01/28 13:07:13;;;;;;;5.20;2.43;;;;;;;;;;5074711;28;20670;-46
2024/01/28 13:09:39;;;;;;;4.90;2.30;;;;;;;;;;5073084;28;20294;-44
2024/01/28 13:12:06;;;;;;;5.63;2.47;;;;;;;;;;5067970;28;20211;-45
2024/01/28 13:14:33;;;;;;;5.10;2.20;;;;;;;;;;5067395;28;20318;-45
2024/01/28 13:16:59;;;;;;;5.47;2.17;;;;;;;;;;5067719;28;20227;-46
2024/01/28 13:19:25;;;;;;;2.60;2.13;;;;;;;;;;5065990;28;20207;-47
2024/01/28 13:21:51;;;;;;;5.47;2.50;;;;;;;;;;5069548;28;20282;-47
2024/01/28 13:24:17;;;;;;;5.87;2.23;;;;;;;;;;5069558;28;20195;-47
2024/01/28 13:26:43;;;;;;;6.10;2.53;;;;;;;;;;5065867;28;20269;-47
2024/01/28 13:29:09;;;;;;;4.27;1.90;;;;;;;;;;5065842;28;20269;-47
2024/01/28 13:31:37;;;;;;;4.40;2.10;;;;;;;;;;5069038;28;20658;-46
2024/01/28 13:34:02;;;;;;;6.60;3.20;;;;;;;;;;5068913;28;20227;-46
2024/01/28 13:36:28;;;;;;;4.87;2.30;;;;;;;;;;5066253;28;20250;-46
2024/01/28 13:38:54;;;;;;;4.13;2.20;;;;;;;;;;5066953;28;20665;-47
2024/01/28 13:41:20;;;;;;;4.53;2.23;;;;;;;;;;5065200;28;20199;-46
2024/01/28 13:43:46;;;;;;;5.13;2.60;;;;;;;;;;5070505;28;20203;-46
2024/01/28 13:46:12;;;;;;;4.83;2.80;;;;;;;;;;5062115;28;20745;-46
2024/01/28 13:48:40;;;;;;;6.57;3.20;;;;;;;;;;5065381;28;20592;-46
2024/01/28 13:51:06;;;;;;;4.37;2.37;;;;;;;;;;5066886;28;20210;-47
2024/01/28 13:53:32;;;;;;;4.57;2.83;;;;;;;;;;5068666;28;20199;-47
2024/01/28 13:55:58;;;;;;;5.30;2.33;;;;;;;;;;5068571;28;20223;-47
2024/01/28 13:58:24;;;;;;;4.47;2.10;;;;;;;;;;5066679;28;20717;-46
2024/01/28 14:00:50;;;;;;;5.43;2.63;;;;;;;;;;5070006;28;20282;-46
2024/01/28 14:03:16;;;;;;;3.67;2.60;;;;;;;;;;5073831;28;20461;-46
2024/01/28 14:05:44;;;;;;;4.27;2.40;;;;;;;;;;5073475;28;20195;-46
2024/01/28 14:08:11;;;;;;;6.87;2.97;;;;;;;;;;5073600;28;20287;-47
2024/01/28 14:10:37;;;;;;;4.50;2.20;;;;;;;;;;5073287;28;20545;-46
2024/01/28 14:13:04;;;;;;;3.37;2.10;;;;;;;;;;5072995;28;20334;-46
2024/01/28 14:15:30;;;;;;;6.00;3.70;;;;;;;;;;5073329;28;20317;-46
2024/01/28 14:17:55;;;;;;;18.00;12.53;;;;;;;;;;5073034;28;20246;-46
2024/01/28 14:20:21;;;;;;;8.97;5.03;;;;;;;;;;5073107;28;20230;-46
2024/01/28 14:22:49;;;;;;;5.57;2.40;;;;;;;;;;5073092;28;20221;-46
2024/01/28 14:25:16;;;;;;;6.77;4.40;;;;;;;;;;5073152;28;20204;-47
2024/01/28 14:27:42;;;;;;;12.10;6.90;;;;;;;;;;5073288;28;20223;-47
2024/01/28 14:30:08;;;;;;;3.73;2.60;;;;;;;;;;5073113;28;20233;-46
2024/01/28 14:32:34;;;;;;;3.33;2.17;;;;;;;;;;5072842;28;20212;-46
2024/01/28 14:35:00;;;;;;;3.10;2.03;;;;;;;;;;5072809;28;20215;-46